createdAt,value
2023-03-18T00:02:14.659Z,6.13
2023-03-18T00:04:43.850Z,7.60
2023-03-18T00:07:14.693Z,5.63
2023-03-18T00:09:44.047Z,6.25
2023-03-18T00:12:13.674Z,7.50
2023-03-18T00:14:42.818Z,8.05
2023-03-18T00:17:12.277Z,7.10
2023-03-18T00:19:42.718Z,5.97
2023-03-18T00:22:13.907Z,7.37
2023-03-18T00:24:43.160Z,6.87
2023-03-18T00:27:12.396Z,6.47
2023-03-18T00:29:41.732Z,5.57
2023-03-18T00:32:11.246Z,6.17
2023-03-18T00:34:43.498Z,7.00
2023-03-18T00:37:19.023Z,7.18
2023-03-18T00:39:48.373Z,5.80
2023-03-18T00:42:17.672Z,6.93
2023-03-18T00:44:47.188Z,6.47
2023-03-18T00:47:16.694Z,6.50
2023-03-18T00:49:45.973Z,6.33
2023-03-18T00:52:16.778Z,7.03
2023-03-18T00:54:46.040Z,6.97
2023-03-18T00:57:15.795Z,6.05
2023-03-18T00:59:45.186Z,6.63
2023-03-18T01:02:14.563Z,6.00
2023-03-18T01:04:45.838Z,6.35
2023-03-18T01:07:16.631Z,5.93
2023-03-18T01:09:46.083Z,5.65
2023-03-18T01:12:15.576Z,6.18
2023-03-18T01:14:44.965Z,6.70
2023-03-18T01:17:17.072Z,6.22
2023-03-18T01:19:46.708Z,6.10
2023-03-18T01:22:17.842Z,5.40
2023-03-18T01:24:52.087Z,6.00
2023-03-18T01:27:27.203Z,6.20
2023-03-18T01:29:57.120Z,6.68
2023-03-18T01:32:26.736Z,5.60
2023-03-18T01:34:57.273Z,5.43
2023-03-18T01:37:29.898Z,6.78
2023-03-18T01:40:11.743Z,6.53
2023-03-18T01:42:41.246Z,6.13
2023-03-18T01:45:21.836Z,5.70
2023-03-18T01:47:54.427Z,8.00
2023-03-18T01:50:27.652Z,6.70
2023-03-18T01:53:02.835Z,5.22
2023-03-18T01:55:34.223Z,5.63
2023-03-18T01:58:08.908Z,5.55
2023-03-18T02:00:43.112Z,6.13
2023-03-18T02:03:14.158Z,5.85
2023-03-18T02:05:44.782Z,6.07
2023-03-18T02:08:15.749Z,6.07
2023-03-18T02:10:46.526Z,6.32
2023-03-18T02:13:17.948Z,6.63
2023-03-18T02:15:53.361Z,5.93
2023-03-18T02:18:26.647Z,5.35
2023-03-18T02:21:17.154Z,5.93
2023-03-18T02:23:56.859Z,5.30
2023-03-18T02:26:35.190Z,6.57
2023-03-18T02:29:09.974Z,5.18
2023-03-18T02:31:49.816Z,5.22
2023-03-18T02:34:28.232Z,5.90
2023-03-18T02:36:59.728Z,4.50
2023-03-18T02:39:30.893Z,6.05
2023-03-18T02:42:01.150Z,6.20
2023-03-18T02:44:32.990Z,6.68
2023-03-18T02:47:26.188Z,6.45
2023-03-18T02:49:56.170Z,7.25
2023-03-18T02:52:25.682Z,5.82
2023-03-18T02:54:59.350Z,5.70
2023-03-18T02:57:30.606Z,5.25
2023-03-18T03:00:01.628Z,5.15
2023-03-18T03:02:31.939Z,6.68
2023-03-18T03:05:01.485Z,5.40
2023-03-18T03:07:31.102Z,5.40
2023-03-18T03:10:03.493Z,6.30
2023-03-18T03:12:32.913Z,6.33
2023-03-18T03:15:03.793Z,6.63
2023-03-18T03:17:39.832Z,6.43
2023-03-18T03:20:10.829Z,5.38
2023-03-18T03:22:40.055Z,5.93
2023-03-18T03:25:13.200Z,5.78
2023-03-18T03:27:43.814Z,6.13
2023-03-18T03:30:16.573Z,4.97
2023-03-18T03:32:45.916Z,4.78
2023-03-18T03:35:15.861Z,6.10
2023-03-18T03:37:45.190Z,6.82
2023-03-18T03:40:17.106Z,5.20
2023-03-18T03:42:46.967Z,4.68
2023-03-18T03:45:20.191Z,6.22
2023-03-18T03:47:49.966Z,5.47
2023-03-18T03:50:20.520Z,5.65
2023-03-18T03:52:49.653Z,5.70
2023-03-18T03:55:21.619Z,6.40
2023-03-18T03:57:51.371Z,5.57
2023-03-18T04:00:24.313Z,5.60
2023-03-18T04:02:54.283Z,6.32
2023-03-18T04:05:25.944Z,5.28
2023-03-18T04:07:55.607Z,5.18
2023-03-18T04:10:36.774Z,5.13
2023-03-18T04:13:07.834Z,5.55
2023-03-18T04:15:38.412Z,5.03
2023-03-18T04:18:11.982Z,5.68
2023-03-18T04:20:41.445Z,7.50
2023-03-18T04:23:21.856Z,5.25
2023-03-18T04:25:51.366Z,6.70
2023-03-18T04:28:20.353Z,5.60
2023-03-18T04:30:51.784Z,5.78
2023-03-18T04:33:21.736Z,5.70
2023-03-18T04:35:51.001Z,8.30
2023-03-18T04:38:21.776Z,6.53
2023-03-18T04:40:53.330Z,5.63
2023-03-18T04:43:22.745Z,6.50
2023-03-18T04:45:54.564Z,5.72
2023-03-18T04:48:23.790Z,5.70
2023-03-18T04:50:55.528Z,5.18
2023-03-18T04:53:28.497Z,5.25
2023-03-18T04:55:57.878Z,4.75
2023-03-18T04:58:33.544Z,5.93
2023-03-18T05:01:23.533Z,5.45
2023-03-18T05:03:53.413Z,6.25
2023-03-18T05:06:28.446Z,6.05
2023-03-18T05:09:01.262Z,5.20
2023-03-18T05:11:35.197Z,5.28
2023-03-18T05:14:23.475Z,5.32
2023-03-18T05:16:57.251Z,6.03
2023-03-18T05:19:26.454Z,5.35
2023-03-18T05:22:02.865Z,6.40
2023-03-18T05:24:32.496Z,6.07
2023-03-18T05:27:02.726Z,5.63
2023-03-18T05:29:40.434Z,5.95
2023-03-18T05:32:16.804Z,5.55
2023-03-18T05:34:48.053Z,5.00
2023-03-18T05:37:17.390Z,6.03
2023-03-18T05:39:55.316Z,6.40
2023-03-18T05:42:25.636Z,5.25
2023-03-18T05:44:57.021Z,5.30
2023-03-18T05:47:28.926Z,5.65
2023-03-18T05:50:14.461Z,4.90
2023-03-18T05:52:44.179Z,5.40
2023-03-18T05:55:20.218Z,4.95
2023-03-18T05:57:49.737Z,5.75
2023-03-18T06:00:20.463Z,6.70
2023-03-18T06:02:54.151Z,5.82
2023-03-18T06:05:24.470Z,6.88
2023-03-18T06:07:54.117Z,4.93
2023-03-18T06:10:25.190Z,5.60
2023-03-18T06:12:55.866Z,6.20
2023-03-18T06:15:27.539Z,6.43
2023-03-18T06:17:57.980Z,5.70
2023-03-18T06:20:27.078Z,5.90
2023-03-18T06:22:56.103Z,7.60
2023-03-18T06:25:28.031Z,6.60
2023-03-18T06:27:57.272Z,6.63
2023-03-18T06:30:30.097Z,6.30
2023-03-18T06:33:00.898Z,5.50
2023-03-18T06:35:31.824Z,6.00
2023-03-18T06:38:01.393Z,5.20
2023-03-18T06:40:30.850Z,7.10
2023-03-18T06:43:00.625Z,6.40
2023-03-18T06:45:36.658Z,6.72
2023-03-18T06:48:10.460Z,5.05
2023-03-18T06:50:44.315Z,6.22
2023-03-18T06:53:20.969Z,5.70
2023-03-18T06:55:50.883Z,5.85
2023-03-18T06:58:24.898Z,7.45
2023-03-18T07:01:09.614Z,6.63
2023-03-18T07:03:44.941Z,6.55
2023-03-18T07:06:15.535Z,7.57
2023-03-18T07:08:46.096Z,6.75
2023-03-18T07:11:15.469Z,6.15
2023-03-18T07:13:45.902Z,6.45
2023-03-18T07:16:21.588Z,5.80
2023-03-18T07:18:52.987Z,6.57
2023-03-18T07:21:25.127Z,6.32
2023-03-18T07:23:55.571Z,6.15
2023-03-18T07:26:27.957Z,6.03
2023-03-18T07:28:57.038Z,6.20
2023-03-18T07:31:30.164Z,6.45
2023-03-18T07:34:00.693Z,5.63
2023-03-18T07:36:30.127Z,6.70
2023-03-18T07:39:00.038Z,7.50
2023-03-18T07:41:29.135Z,6.80
2023-03-18T07:44:03.508Z,8.27
2023-03-18T07:46:32.534Z,7.72
2023-03-18T07:49:03.374Z,7.20
2023-03-18T07:51:32.788Z,6.33
2023-03-18T07:54:01.822Z,6.10
2023-03-18T07:56:30.897Z,6.80
2023-03-18T07:58:59.830Z,5.83
2023-03-18T08:01:29.296Z,7.00
2023-03-18T08:03:58.228Z,7.67
2023-03-18T08:06:28.774Z,5.87
2023-03-18T08:08:59.114Z,6.57
2023-03-18T08:11:28.123Z,6.80
2023-03-18T08:13:57.334Z,6.73
2023-03-18T08:16:27.287Z,7.03
2023-03-18T08:18:56.377Z,6.10
2023-03-18T08:21:25.599Z,6.33
2023-03-18T08:23:56.125Z,7.47
2023-03-18T08:26:25.294Z,7.30
2023-03-18T08:28:54.305Z,9.73
2023-03-18T08:31:23.570Z,7.40
2023-03-18T08:33:54.239Z,6.10
2023-03-18T08:36:23.831Z,6.13
2023-03-18T08:38:54.673Z,5.00
2023-03-18T08:41:25.809Z,6.23
2023-03-18T08:43:57.411Z,7.47
2023-03-18T08:46:26.827Z,6.80
2023-03-18T08:48:55.931Z,7.07
2023-03-18T08:51:29.283Z,6.83
2023-03-18T08:54:09.474Z,6.60
2023-03-18T08:56:38.452Z,5.60
2023-03-18T08:59:07.588Z,6.67
2023-03-18T09:01:36.746Z,6.53
2023-03-18T09:04:06.030Z,6.40
2023-03-18T09:06:35.018Z,6.10
2023-03-18T09:09:04.570Z,6.07
2023-03-18T09:11:35.988Z,7.80
2023-03-18T09:14:05.037Z,6.20
2023-03-18T09:16:35.052Z,6.40
2023-03-18T09:19:05.124Z,5.80
2023-03-18T09:21:34.376Z,7.03
2023-03-18T09:24:07.569Z,6.13
2023-03-18T09:26:39.340Z,6.60
2023-03-18T09:29:08.412Z,5.87
2023-03-18T09:31:38.757Z,6.03
2023-03-18T09:34:08.391Z,6.63
2023-03-18T09:36:37.391Z,6.37
2023-03-18T09:39:10.059Z,6.70
2023-03-18T09:41:51.658Z,7.63
2023-03-18T09:44:26.520Z,6.50
2023-03-18T09:47:15.908Z,6.90
2023-03-18T09:49:59.361Z,7.27
2023-03-18T09:52:32.830Z,6.83
2023-03-18T09:55:06.458Z,5.40
2023-03-18T09:57:42.503Z,6.37
2023-03-18T10:00:21.597Z,6.80
2023-03-18T10:02:56.588Z,6.60
2023-03-18T10:05:31.436Z,9.23
2023-03-18T10:08:05.710Z,6.90
2023-03-18T10:10:38.988Z,7.00
2023-03-18T10:13:17.476Z,5.90
2023-03-18T10:15:50.595Z,7.23
2023-03-18T10:18:28.028Z,6.20
2023-03-18T10:21:09.215Z,6.70
2023-03-18T10:23:49.690Z,5.17
2023-03-18T10:26:24.391Z,7.60
2023-03-18T10:29:09.439Z,6.87
2023-03-18T10:31:49.152Z,6.97
2023-03-18T10:34:22.051Z,6.83
2023-03-18T10:36:57.359Z,6.67
2023-03-18T10:39:29.147Z,6.13
2023-03-18T10:42:02.276Z,7.57
2023-03-18T10:44:37.377Z,6.93
2023-03-18T10:47:13.448Z,8.10
2023-03-18T10:49:47.743Z,7.73
2023-03-18T10:52:21.997Z,6.90
2023-03-18T10:54:52.769Z,7.03
2023-03-18T10:57:23.215Z,7.07
2023-03-18T10:59:54.162Z,6.53
2023-03-18T11:02:31.488Z,6.10
2023-03-18T11:05:05.633Z,6.73
2023-03-18T11:07:34.920Z,6.90
2023-03-18T11:10:16.634Z,6.63
2023-03-18T11:12:46.071Z,6.40
2023-03-18T11:15:21.906Z,6.27
2023-03-18T11:17:52.526Z,5.60
2023-03-18T11:20:25.428Z,7.17
2023-03-18T11:22:57.678Z,7.27
2023-03-18T11:25:29.366Z,6.70
2023-03-18T11:28:04.071Z,5.80
2023-03-18T11:30:49.074Z,5.57
2023-03-18T11:33:18.600Z,6.80
2023-03-18T11:35:53.350Z,6.63
2023-03-18T11:38:28.891Z,6.43
2023-03-18T11:41:09.039Z,6.57
2023-03-18T11:44:07.873Z,6.47
2023-03-18T11:46:42.117Z,5.47
2023-03-18T11:49:17.420Z,6.70
2023-03-18T11:51:51.061Z,4.93
2023-03-18T11:54:33.823Z,7.00
2023-03-18T11:57:07.869Z,5.47
2023-03-18T11:59:49.104Z,5.07
2023-03-18T12:02:47.887Z,4.60
2023-03-18T12:05:46.964Z,4.50
2023-03-18T12:08:24.117Z,4.00
2023-03-18T12:11:06.291Z,6.13
2023-03-18T12:13:48.391Z,6.97
2023-03-18T12:16:26.716Z,5.00
2023-03-18T12:19:32.875Z,5.17
2023-03-18T12:22:18.729Z,5.80
2023-03-18T12:25:02.620Z,4.57
2023-03-18T12:27:43.170Z,5.57
2023-03-18T12:30:32.501Z,4.23
2023-03-18T12:33:10.850Z,5.40
2023-03-18T12:35:53.566Z,5.70
2023-03-18T12:38:46.809Z,5.23
2023-03-18T12:41:19.707Z,4.93
2023-03-18T12:44:00.638Z,4.77
2023-03-18T12:46:34.374Z,6.53
2023-03-18T12:49:11.193Z,4.67
2023-03-18T12:51:47.111Z,5.10
2023-03-18T12:54:22.871Z,4.90
2023-03-18T12:56:56.505Z,4.63
2023-03-18T12:59:33.132Z,5.90
2023-03-18T13:02:35.113Z,4.23
2023-03-18T13:05:14.227Z,4.47
2023-03-18T13:07:50.749Z,4.13
2023-03-18T13:10:23.616Z,4.07
2023-03-18T13:12:55.965Z,4.90
2023-03-18T13:15:32.081Z,4.53
2023-03-18T13:18:07.193Z,4.57
2023-03-18T13:20:39.743Z,4.23
2023-03-18T13:23:33.268Z,4.30
2023-03-18T13:26:09.984Z,4.20
2023-03-18T13:29:01.402Z,4.20
2023-03-18T13:31:44.897Z,4.23
2023-03-18T13:34:49.948Z,4.10
2023-03-18T13:38:06.573Z,4.23
2023-03-18T13:40:59.608Z,4.53
2023-03-18T13:43:31.195Z,5.07
2023-03-18T13:46:01.484Z,4.93
2023-03-18T13:48:33.886Z,6.50
2023-03-18T13:51:20.707Z,4.07
2023-03-18T13:53:51.544Z,4.30
2023-03-18T13:56:45.888Z,5.17
2023-03-18T13:59:48.501Z,10.30
2023-03-18T14:02:34.686Z,5.00
2023-03-18T14:05:04.910Z,16.63
2023-03-18T14:07:47.989Z,6.10
2023-03-18T14:10:21.149Z,5.43
2023-03-18T14:12:52.209Z,6.03
2023-03-18T14:15:48.404Z,5.47
2023-03-18T14:18:28.632Z,5.67
2023-03-18T14:21:04.736Z,6.30
2023-03-18T14:23:40.087Z,5.87
2023-03-18T14:26:20.801Z,6.70
2023-03-18T14:28:56.509Z,5.90
2023-03-18T14:31:54.076Z,5.33
2023-03-18T14:34:29.345Z,5.13
2023-03-18T14:37:27.763Z,5.80
2023-03-18T14:40:01.814Z,6.80
2023-03-18T14:42:42.116Z,11.07
2023-03-18T14:45:21.587Z,7.80
2023-03-18T14:47:52.656Z,5.67
2023-03-18T14:50:31.076Z,5.60
2023-03-18T14:53:06.623Z,6.87
2023-03-18T14:55:38.583Z,5.63
2023-03-18T14:58:07.981Z,5.97
2023-03-18T15:00:39.262Z,37.97
2023-03-18T15:03:15.064Z,6.47
2023-03-18T15:05:46.564Z,5.87
2023-03-18T15:08:19.522Z,5.80
2023-03-18T15:10:51.744Z,6.80
2023-03-18T15:13:22.860Z,6.40
2023-03-18T15:15:56.989Z,5.70
2023-03-18T15:18:29.676Z,6.10
2023-03-18T15:21:03.031Z,5.50
2023-03-18T15:23:35.178Z,5.80
2023-03-18T15:26:09.399Z,5.43
2023-03-18T15:28:39.031Z,8.30
2023-03-18T15:31:10.124Z,7.83
2023-03-18T15:33:39.996Z,9.63
2023-03-18T15:36:16.669Z,7.97
2023-03-18T15:38:49.200Z,5.50
2023-03-18T15:41:21.920Z,4.53
2023-03-18T15:43:52.457Z,4.97
2023-03-18T15:46:30.996Z,4.67
2023-03-18T15:49:04.592Z,5.27
2023-03-18T15:51:40.106Z,4.13
2023-03-18T15:54:19.323Z,6.10
2023-03-18T15:56:50.141Z,4.53
2023-03-18T15:59:24.376Z,5.33
2023-03-18T16:01:55.830Z,3.90
2023-03-18T16:04:25.639Z,5.13
2023-03-18T16:06:54.908Z,4.50
2023-03-18T16:09:25.406Z,5.23
2023-03-18T16:11:57.480Z,5.40
2023-03-18T16:14:29.760Z,4.57
2023-03-18T16:17:00.543Z,4.87
2023-03-18T16:19:31.161Z,5.20
2023-03-18T16:22:01.220Z,4.40
2023-03-18T16:24:30.404Z,5.07
2023-03-18T16:27:00.429Z,4.80
2023-03-18T16:29:32.003Z,4.50
2023-03-18T16:32:02.762Z,4.20
2023-03-18T16:34:32.268Z,4.43
2023-03-18T16:37:01.923Z,4.87
2023-03-18T16:39:36.308Z,4.07
2023-03-18T16:42:06.680Z,4.20
2023-03-18T16:44:38.135Z,4.90
2023-03-18T16:47:18.287Z,4.20
2023-03-18T16:49:47.358Z,4.00
2023-03-18T16:52:16.707Z,5.17
2023-03-18T16:54:46.200Z,4.60
2023-03-18T16:57:20.048Z,5.57
2023-03-18T16:59:53.143Z,3.00
2023-03-18T17:02:32.424Z,5.80
2023-03-18T17:05:02.315Z,5.63
2023-03-18T17:07:33.635Z,5.20
2023-03-18T17:10:02.744Z,3.80
2023-03-18T17:12:35.101Z,3.07
2023-03-18T17:15:04.759Z,5.17
2023-03-18T17:17:36.928Z,6.00
2023-03-18T17:20:16.242Z,4.40
2023-03-18T17:22:45.598Z,4.07
2023-03-18T17:25:14.727Z,3.30
2023-03-18T17:27:47.925Z,3.53
2023-03-18T17:30:22.129Z,3.10
2023-03-18T17:32:52.870Z,2.90
2023-03-18T17:35:24.854Z,3.70
2023-03-18T17:37:56.335Z,4.00
2023-03-18T17:40:31.433Z,3.97
2023-03-18T17:43:02.553Z,4.00
2023-03-18T17:45:35.775Z,4.00
2023-03-18T17:48:22.488Z,5.30
2023-03-18T17:50:54.719Z,5.20
2023-03-18T17:53:28.218Z,5.90
2023-03-18T17:55:59.179Z,5.10
2023-03-18T17:58:32.396Z,6.30
2023-03-18T18:01:09.940Z,7.77
2023-03-18T18:03:47.357Z,6.37
2023-03-18T18:06:21.399Z,6.47
2023-03-18T18:09:00.915Z,6.90
2023-03-18T18:11:35.139Z,7.00
2023-03-18T18:14:15.294Z,7.57
2023-03-18T18:16:45.305Z,6.50
2023-03-18T18:19:20.175Z,7.37
2023-03-18T18:21:54.657Z,8.50
2023-03-18T18:24:27.554Z,6.20
2023-03-18T18:26:57.496Z,5.93
2023-03-18T18:29:33.229Z,7.47
2023-03-18T18:32:09.586Z,7.13
2023-03-18T18:34:46.850Z,7.87
2023-03-18T18:37:19.165Z,7.50
2023-03-18T18:39:49.061Z,8.00
2023-03-18T18:42:20.666Z,8.10
2023-03-18T18:44:52.403Z,9.37
2023-03-18T18:47:23.773Z,9.10
2023-03-18T18:49:56.706Z,8.30
2023-03-18T18:52:27.719Z,7.27
2023-03-18T18:54:58.599Z,9.50
2023-03-18T18:57:30.811Z,8.83
2023-03-18T19:00:01.971Z,8.53
2023-03-18T19:02:34.590Z,9.63
2023-03-18T19:05:11.354Z,9.93
2023-03-18T19:07:45.357Z,11.70
2023-03-18T19:10:22.026Z,10.73
2023-03-18T19:12:54.072Z,9.40
2023-03-18T19:15:24.795Z,11.77
2023-03-18T19:17:55.381Z,10.07
2023-03-18T19:20:32.889Z,10.90
2023-03-18T19:23:07.350Z,9.70
2023-03-18T19:25:41.945Z,8.93
2023-03-18T19:28:18.866Z,8.30
2023-03-18T19:30:49.064Z,7.60
2023-03-18T19:33:19.768Z,7.67
2023-03-18T19:35:52.592Z,7.23
2023-03-18T19:38:23.796Z,8.47
2023-03-18T19:40:55.923Z,9.87
2023-03-18T19:43:25.588Z,8.73
2023-03-18T19:46:01.409Z,11.07
2023-03-18T19:48:32.350Z,10.47
2023-03-18T19:51:04.617Z,10.73
2023-03-18T19:53:35.855Z,11.70
2023-03-18T19:56:08.836Z,10.63
2023-03-18T19:58:41.044Z,9.73
2023-03-18T20:01:41.385Z,11.17
2023-03-18T20:04:19.063Z,13.43
2023-03-18T20:06:50.780Z,12.97
2023-03-18T20:09:26.612Z,13.40
2023-03-18T20:12:08.977Z,14.77
2023-03-18T20:14:39.939Z,14.00
2023-03-18T20:17:33.991Z,11.83
2023-03-18T20:20:07.470Z,12.83
2023-03-18T20:22:43.484Z,14.53
2023-03-18T20:25:21.760Z,12.93
2023-03-18T20:27:59.173Z,13.53
2023-03-18T20:30:33.684Z,12.77
2023-03-18T20:33:05.906Z,11.47
2023-03-18T20:35:42.065Z,12.17
2023-03-18T20:38:19.622Z,11.17
2023-03-18T20:40:53.058Z,12.87
2023-03-18T20:43:24.963Z,10.73
2023-03-18T20:46:00.442Z,10.50
2023-03-18T20:48:34.034Z,12.10
2023-03-18T20:51:37.393Z,14.17
2023-03-18T20:54:20.475Z,11.10
2023-03-18T20:56:51.584Z,12.23
2023-03-18T20:59:25.724Z,10.00
2023-03-18T21:01:57.804Z,10.97
2023-03-18T21:04:31.141Z,11.10
2023-03-18T21:07:01.302Z,10.80
2023-03-18T21:09:35.032Z,11.13
2023-03-18T21:12:08.203Z,12.27
2023-03-18T21:14:45.202Z,11.77
2023-03-18T21:17:24.182Z,11.60
2023-03-18T21:20:11.123Z,10.63
2023-03-18T21:22:48.966Z,12.30
2023-03-18T21:25:24.342Z,11.70
2023-03-18T21:27:59.214Z,11.87
2023-03-18T21:30:30.347Z,11.20
2023-03-18T21:33:05.386Z,10.57
2023-03-18T21:35:41.134Z,13.07
2023-03-18T21:38:13.748Z,12.00
2023-03-18T21:40:59.575Z,12.70
2023-03-18T21:43:36.042Z,11.97
2023-03-18T21:46:09.864Z,13.80
2023-03-18T21:48:41.872Z,13.97
2023-03-18T21:51:37.634Z,13.10
2023-03-18T21:54:19.559Z,13.17
2023-03-18T21:56:54.908Z,12.23
2023-03-18T21:59:27.352Z,14.77
2023-03-18T22:01:57.882Z,15.27
2023-03-18T22:04:29.312Z,14.70
2023-03-18T22:07:00.819Z,12.80
2023-03-18T22:09:31.169Z,13.93
2023-03-18T22:12:06.994Z,11.77
2023-03-18T22:15:03.440Z,12.43
2023-03-18T22:17:38.980Z,13.17
2023-03-18T22:20:21.972Z,14.97
2023-03-18T22:22:52.629Z,17.20
2023-03-18T22:25:31.920Z,14.27
2023-03-18T22:28:07.627Z,13.43
2023-03-18T22:30:44.716Z,15.33
2023-03-18T22:33:22.845Z,14.60
2023-03-18T22:35:54.555Z,14.40
2023-03-18T22:38:34.041Z,13.10
2023-03-18T22:41:05.587Z,14.13
2023-03-18T22:43:43.560Z,12.40
2023-03-18T22:46:15.903Z,13.73
2023-03-18T22:48:48.881Z,13.70
2023-03-18T22:51:25.773Z,13.93
2023-03-18T22:53:57.379Z,13.30
2023-03-18T22:56:28.465Z,14.00
2023-03-18T22:59:05.573Z,13.87
2023-03-18T23:01:40.268Z,14.40
2023-03-18T23:04:19.482Z,14.43
2023-03-18T23:06:56.826Z,13.27
2023-03-18T23:09:31.938Z,14.37
2023-03-18T23:12:14.769Z,15.07
2023-03-18T23:14:57.638Z,13.03
2023-03-18T23:17:31.818Z,13.57
2023-03-18T23:20:04.937Z,13.17
2023-03-18T23:22:43.905Z,14.40
2023-03-18T23:25:22.794Z,16.03
2023-03-18T23:27:54.739Z,16.80
2023-03-18T23:30:28.148Z,15.37
2023-03-18T23:32:59.732Z,13.80
2023-03-18T23:35:33.778Z,15.00
2023-03-18T23:38:06.315Z,16.60
2023-03-18T23:40:37.575Z,16.40
2023-03-18T23:43:11.229Z,15.73
2023-03-18T23:45:46.735Z,15.67
2023-03-18T23:48:20.078Z,14.50
2023-03-18T23:50:52.142Z,16.00
2023-03-18T23:53:22.929Z,16.20
2023-03-18T23:55:53.461Z,15.70
2023-03-18T23:58:26.524Z,14.93
